Station: Gove Airport  

  Atmospheric Gas Attenuation - ITU Rec 676-11   ----------------- dB/100km -----------------
Date Time Temp RH % AH g/m3 Dew Point Wind Direction Speed kph Gust kph Barometer mB Rainfall Since 9am 24GHz 47GHz 76GHz 122GHz 134GHz 241GHz
05/05 14:30 29.8 68 20.4 23.3 26 37 1010.1 0 43.4 40.2 78.6 208.0 230.9 802.8
05/05 14:20 29.8 69 20.7 23.5 28 30 1010.2 0 44.0 40.8 80.0 211.7 235.4 818.4
05/05 14:10 29.5 69 20.37 23.4 30 35 1010.2 0 43.4 40.3 78.7 208.5 231.4 804.4
05/05 14:00 29.3 68 19.86 22.8 28 35 1010.4 0 42.3 39.5 76.6 202.8 224.5 780.2
05/05 13:50 29.1 70 20.22 23.1 32 33 1010.5 0 43.1 40.2 78.5 207.8 230.4 801.0
05/05 13:40 29.3 69 20.15 23 26 32 1010.6 0 42.9 40.0 78.0 206.4 228.8 795.3
05/05 13:30 29.8 67 20.1 23 26 35 1010.6 0 42.8 39.7 77.2 204.4 226.5 787.6
05/05 13:20 29.4 69 20.26 23.3 28 30 1010.6 0 43.2 40.2 78.4 207.5 230.1 800.0
05/05 13:10 29.4 69 20.26 23.1 26 30 1010.7 0 43.2 40.2 78.4 207.5 230.2 800.1
05/05 13:00 30 69 20.93 23.7 26 35 1010.7 0 44.5 41.1 80.8 214.0 238.3 828.6
05/05 12:50 29.5 68 20.07 23 26 32 1010.8 0 42.8 39.8 77.4 204.9 227.0 789.2
05/05 12:40 29.7 69 20.59 23.6 24 26 1010.9 0 43.8 40.7 79.6 210.7 234.2 814.2
05/05 12:30 29.5 68 20.07 23 28 39 1011 0 42.8 39.8 77.4 204.9 227.1 789.3
05/05 12:20 30.7 65 20.47 23.4 24 28 1011.1 0 43.5 40.0 78.0 206.6 229.4 797.5
05/05 12:10 30.7 62 19.53 22.8 20 28 1011.1 0 41.5 38.3 73.8 195.4 215.7 749.9
05/05 12:00 30.9 59 18.79 22.2 24 32 1011.3 0 39.9 36.9 70.4 186.3 204.6 711.4
05/05 11:50 30.6 59 18.48 21.7 26 30 1011.4 0 39.3 36.5 69.4 183.5 201.1 698.9
05/05 11:40 30.7 61 19.21 22.3 26 32 1011.5 0 40.8 37.7 72.4 191.7 211.1 734.1
05/05 11:30 30.7 61 19.21 22.3 28 35 1011.6 0 40.8 37.7 72.5 191.7 211.2 734.1
05/05 11:20 30.2 65 19.93 22.9 28 33 1011.9 0 42.4 39.3 76.1 201.5 223.1 775.5
05/05 11:10 29.7 68 20.29 23.2 28 33 1012.1 0 43.2 40.2 78.3 207.2 229.9 799.2
05/05 11:00 29.8 64 19.2 22.3 26 35 1012.3 0 40.9 38.1 73.3 194.0 213.6 742.6
05/05 10:50 30.5 65 20.25 23.2 26 32 1012.4 0 43.0 39.7 77.3 204.7 226.9 789.0
05/05 10:40 29.8 64 19.2 22.3 30 33 1012.4 0 40.9 38.1 73.3 194.0 213.6 742.7
05/05 10:30 29.3 67 19.56 22.5 28 35 1012.5 0 41.7 39.0 75.4 199.6 220.4 765.9
05/05 10:20 30 65 19.71 22.9 30 35 1012.6 0 41.9 39.0 75.4 199.5 220.5 766.6
05/05 10:10 29.8 64 19.2 22.3 30 32 1012.8 0 40.9 38.2 73.3 194.0 213.7 742.9
05/05 10:00 29.9 67 20.21 23.3 28 35 1012.8 0 43.0 39.9 77.8 205.8 228.2 793.4
05/05 09:50 30.1 65 19.82 23 26 28 1012.8 0 42.1 39.1 75.8 200.6 221.9 771.3
05/05 09:40 29.3 70 20.44 23.3 24 30 1012.9 0 43.5 40.7 79.5 210.3 233.5 811.7
05/05 09:30 29.6 69 20.48 23.3 24 32 1012.7 0 43.6 40.6 79.3 209.9 233.1 810.5
05/05 09:20 29 73 20.97 23.7 22 24 1012.6 0 44.7 41.8 82.2 217.6 242.4 842.7
05/05 09:10 28.3 75 20.74 23.4 22 24 1012.6 0 44.3 41.7 81.9 216.8 241.2 838.3
05/05 09:00 29.2 74 21.49 24.1 24 33 1012.5 0 45.8 42.7 84.4 223.6 249.8 868.2
05/05 08:50 28.7 75 21.2 23.8 20 22 1012.5 0 45.2 42.4 83.6 221.4 246.9 858.3
05/05 08:40 27.8 78 20.98 23.6 19 22 1012.5 0 44.9 42.4 83.6 221.2 246.5 856.7
05/05 08:30 27.6 79 21.02 23.6 20 30 1012.5 0 45.0 42.6 84.0 222.3 247.8 861.2
05/05 08:20 27.5 80 21.17 23.7 20 24 1012.5 0 45.3 42.9 84.8 224.5 250.5 870.5
05/05 08:10 27.2 83 21.6 24.1 17 20 1012.5 0 46.2 43.9 87.3 231.0 258.3 897.7
05/05 08:00 26.8 85 21.64 24.1 13 17 1012.4 0 46.4 44.2 87.9 232.7 260.3 904.6
05/05 07:50 26.2 88 21.66 24.1 15 17 1012.5 0 46.5 44.6 88.7 234.9 262.8 913.1
05/05 07:40 25.5 91 21.54 23.9 9 11 1012.4 0 46.3 44.7 89.0 235.5 263.3 914.8
05/05 07:30 24.8 92 20.94 23.4 9 11 1012.4 0 45.1 43.9 86.8 229.7 256.0 889.4
05/05 07:20 24.6 94 21.16 23.6 11 11 1012.2 0 45.6 44.4 88.1 233.2 260.3 904.1
05/05 07:10 24.2 96 21.12 23.5 13 15 1012.1 0 45.6 44.6 88.4 233.9 261.0 906.6
05/05 07:00 23.3 96 20.07 22.6 9 11 1011.8 0 43.4 42.9 84.1 222.6 246.9 857.4
05/05 06:50 22.9 96 19.62 22.2 7 9 1011.6 0 42.5 42.2 82.3 217.8 240.9 836.5
05/05 06:40 22.8 97 19.71 22.3 9 9 1011.4 0 42.7 42.4 82.9 219.3 242.7 842.6
05/05 06:30 22.6 97 19.48 22.1 7 9 1011.4 0 42.3 42.1 81.9 216.8 239.6 831.9
05/05 06:20 22.2 96 18.85 21.5 6 7 1011.3 0 40.9 41.0 79.3 209.7 230.7 800.9
05/05 06:10 22.4 96 19.06 21.7 7 7 1011.2 0 41.4 41.3 80.1 211.8 233.4 810.4
05/05 06:00 22.6 96 19.28 21.9 7 9 1011.1 0 41.8 41.7 80.9 214.1 236.3 820.5
05/05 05:50 22.7 96 19.39 22 7 7 1011 0 42.1 41.8 81.4 215.3 237.7 825.5
05/05 05:40 22.7 96 19.39 22 6 7 1010.9 0 42.1 41.8 81.4 215.2 237.7 825.4
05/05 05:30 22.8 96 19.51 22.1 6 7 1010.8 0 42.3 42.0 81.8 216.5 239.3 831.0
05/05 05:20 22.9 96 19.62 22.2 6 7 1010.7 0 42.5 42.2 82.3 217.7 240.8 836.0
05/05 05:10 22.6 95 19.08 21.8 6 6 1010.7 0 41.4 41.3 79.9 211.4 233.0 809.1
05/05 05:00 23 96 19.73 22.3 6 6 1010.7 0 42.8 42.3 82.7 218.8 242.2 841.1
05/05 04:50 23.2 96 19.96 22.5 6 6 1010.7 0 43.2 42.7 83.6 221.3 245.3 851.7
05/05 04:40 23.3 96 20.07 22.6 7 7 1010.7 0 43.4 42.9 84.0 222.4 246.7 856.8
05/05 04:30 23.1 96 19.84 22.4 7 9 1010.7 0 43.0 42.5 83.1 220.0 243.7 846.1
05/05 04:20 23.2 96 19.96 22.5 7 7 1010.8 0 43.2 42.7 83.6 221.3 245.3 851.8
05/05 04:10 23.2 95 19.75 22.4 6 7 1011 0 42.8 42.3 82.6 218.5 241.9 840.1
05/05 04:00 23.1 95 19.64 22.3 6 7 1011 0 42.5 42.1 82.2 217.4 240.5 835.1
05/05 03:50 23.2 95 19.75 22.4 6 6 1010.9 0 42.8 42.3 82.6 218.5 241.9 840.0
05/05 03:40 23.4 95 19.98 22.6 6 7 1010.9 0 43.2 42.6 83.5 221.0 245.0 850.7
05/05 03:30 23.6 95 20.2 22.8 6 7 1010.9 0 43.7 43.0 84.4 223.3 247.9 860.8
05/05 03:20 23.6 94 19.99 22.6 6 7 1010.9 0 43.2 42.6 83.3 220.5 244.5 849.0
05/05 03:10 23.7 94 20.11 22.7 6 7 1010.8 0 43.5 42.7 83.8 221.8 246.1 854.5
05/05 03:00 23.7 94 20.11 22.7 7 9 1010.9 0 43.5 42.7 83.8 221.8 246.1 854.6
05/05 02:50 23.8 94 20.22 22.8 7 7 1011 0 43.7 42.9 84.3 223.0 247.5 859.7
05/05 02:40 23.8 94 20.22 22.8 7 9 1011 0 43.7 42.9 84.3 223.0 247.5 859.7
05/05 02:30 23.8 94 20.22 22.8 7 9 1011.2 0 43.7 42.9 84.3 223.0 247.6 859.8
05/05 02:20 23.9 95 20.55 23 7 9 1011.3 0 44.4 43.5 85.8 227.1 252.6 877.3
05/05 02:10 23.8 95 20.43 22.9 9 9 1011.4 0 44.2 43.4 85.3 225.8 251.0 871.8
05/05 02:00 23.6 94 19.99 22.6 7 9 1011.4 0 43.2 42.6 83.4 220.6 244.6 849.3
05/05 01:50 23.7 94 20.11 22.7 7 9 1011.5 0 43.5 42.8 83.9 221.9 246.2 854.9
05/05 01:40 23.8 95 20.43 22.9 7 9 1011.5 0 44.2 43.4 85.3 225.8 251.0 871.8
05/05 01:30 23.7 95 20.32 22.9 7 9 1011.4 0 43.9 43.2 84.9 224.7 249.6 866.7
05/05 01:20 23.6 95 20.2 22.8 9 9 1011.4 0 43.7 43.0 84.4 223.4 248.0 861.1
05/05 01:10 23.6 95 20.2 22.8 7 9 1011.4 0 43.7 43.0 84.4 223.4 248.0 861.1
05/05 01:00 23.6 95 20.2 22.8 7 7 1011.6 0 43.7 43.0 84.4 223.4 248.0 861.2
05/05 00:50 23.4 94 19.76 22.4 7 7 1011.8 0 42.8 42.2 82.5 218.2 241.6 838.9
05/05 00:40 23.7 94 20.11 22.7 6 6 1011.9 0 43.5 42.8 83.9 222.0 246.2 855.2
05/05 00:30 23.7 94 20.11 22.7 6 7 1012 0 43.5 42.8 83.9 222.0 246.3 855.2
05/05 00:20 23.8 92 19.79 22.4 6 7 1012 0 42.8 42.1 82.2 217.5 240.8 836.2
05/05 00:10 24.3 93 20.58 23.1 7 7 1012.1 0 44.4 43.4 85.5 226.4 251.9 874.8
05/05 00:00 24.3 93 20.58 23.1 7 7 1012.4 0 44.4 43.4 85.6 226.5 251.9 875.0
04/05 23:50 24.2 93 20.46 23 7 7 1012.6 0 44.2 43.3 85.1 225.2 250.3 869.5
04/05 23:40 24.2 93 20.46 23 9 9 1012.7 0 44.2 43.3 85.1 225.2 250.4 869.5
04/05 23:30 24.3 92 20.36 22.9 9 11 1012.6 0 43.9 43.0 84.5 223.6 248.4 862.7
04/05 23:20 24.4 92 20.47 23 9 11 1012.5 0 44.2 43.2 84.9 224.7 249.8 867.7
04/05 23:10 24.4 92 20.47 23 9 9 1012.6 0 44.2 43.2 84.9 224.7 249.8 867.7
04/05 23:00 24.5 92 20.59 23.1 9 9 1012.6 0 44.4 43.4 85.4 226.0 251.4 873.3
04/05 22:50 24.5 92 20.59 23.1 9 9 1012.6 0 44.4 43.4 85.4 226.0 251.4 873.3
04/05 22:40 24.6 91 20.48 23 7 9 1012.6 0 44.2 43.1 84.7 224.3 249.3 866.0
04/05 22:30 24.6 91 20.48 23 9 11 1012.6 0 44.2 43.1 84.7 224.3 249.3 866.0
04/05 22:20 24.6 91 20.48 23 9 9 1012.7 0 44.2 43.1 84.7 224.3 249.3 866.0
04/05 22:10 24.8 90 20.49 23 9 11 1012.7 0 44.2 43.0 84.6 223.8 248.8 864.3
04/05 22:00 25 90 20.72 23.2 7 9 1012.7 0 44.6 43.4 85.5 226.2 251.8 874.8

Last Refresh: 05-May-2026 14:41:05

Bureau of Meteorology